Terminal Aerodrome Forecast
Issued by NWS

Home | Current Version | Previous Version | Text Only | Print | Product List | Glossary On
Versions: 1 2 3 4 5 6 7 8 9 10 11 12 13 14 15 16 17
000
FTPQ31 PGUM 260521
TAFGUM
TAF

TAF
PGRO 260520Z 2606/2706 13009KT P6SM VCSH FEW012 FEW040 BKN100
     FM261100 09006KT P6SM VCSH FEW015 SCT120=

USA.gov is the U.S. government's official web portal to all federal, state and local government web resources and services.